Time;durP1;ratioP1;P1;durP2;ratioP2;P2;SDS_P1;SDS_P2;PMS_P1;PMS_P2;Temp;Humidity;BMP_temperature;BMP_pressure;BME280_temperature;BME280_humidity;BME280_pressure;Samples;Min_cycle;Max_cycle;Signal;HPM_P1;HPM_P2
2023/01/25 00:01:51;;;;;;;56.35;26.35;;;2.10;99.90;;;;;;5046849;28;20259;-76
2023/01/25 00:04:20;;;;;;;57.63;23.80;;;2.10;99.90;;;;;;5048528;28;20214;-76
2023/01/25 00:06:47;;;;;;;52.42;25.80;;;2.10;99.90;;;;;;5048617;28;20181;-77
2023/01/25 00:09:13;;;;;;;48.08;23.55;;;2.20;99.90;;;;;;5047475;28;20189;-77
2023/01/25 00:11:39;;;;;;;50.95;24.83;;;2.10;99.90;;;;;;5050488;28;20756;-77
2023/01/25 00:14:05;;;;;;;45.37;22.80;;;2.20;99.90;;;;;;5051289;28;20249;-77
2023/01/25 00:16:31;;;;;;;51.97;25.30;;;2.20;99.90;;;;;;5051113;28;20187;-77
2023/01/25 00:18:57;;;;;;;50.20;24.77;;;2.20;99.90;;;;;;5034323;28;20307;-77
2023/01/25 00:21:24;;;;;;;54.87;23.20;;;2.20;99.90;;;;;;5052532;28;20438;-77
2023/01/25 00:23:50;;;;;;;60.30;25.98;;;2.20;99.90;;;;;;5051277;28;20185;-77
2023/01/25 00:26:16;;;;;;;53.63;25.40;;;2.20;99.90;;;;;;5051301;28;20559;-77
2023/01/25 00:28:42;;;;;;;54.27;24.10;;;2.20;99.90;;;;;;5052433;28;20430;-77
2023/01/25 00:31:15;;;;;;;63.28;28.73;;;2.20;99.90;;;;;;5052814;28;20241;-76
2023/01/25 00:33:51;;;;;;;64.10;28.20;;;2.20;99.90;;;;;;5052136;28;20687;-77
2023/01/25 00:36:35;;;;;;;54.15;25.90;;;2.20;99.90;;;;;;5052618;28;20168;-77
2023/01/25 00:39:01;;;;;;;54.80;25.40;;;2.20;99.90;;;;;;5052431;28;20180;-77
2023/01/25 00:41:26;;;;;;;56.53;23.00;;;2.20;99.90;;;;;;5052519;28;20227;-77
2023/01/25 00:43:52;;;;;;;47.13;24.53;;;2.20;99.90;;;;;;5052020;28;20177;-76
2023/01/25 00:46:18;;;;;;;49.30;23.17;;;2.20;99.90;;;;;;5052080;28;20264;-76
2023/01/25 00:48:44;;;;;;;42.83;22.40;;;2.20;99.90;;;;;;5052542;28;20665;-77
2023/01/25 00:51:10;;;;;;;56.78;24.42;;;2.30;99.90;;;;;;5051048;28;20701;-76
2023/01/25 00:53:36;;;;;;;48.28;23.85;;;2.20;99.90;;;;;;5052544;28;20274;-77
2023/01/25 00:56:01;;;;;;;56.00;24.67;;;2.20;99.90;;;;;;5052375;28;20690;-77
2023/01/25 00:58:27;;;;;;;54.73;22.90;;;2.20;99.90;;;;;;5052137;28;20606;-77
2023/01/25 01:00:54;;;;;;;51.60;25.03;;;2.20;99.90;;;;;;5050656;28;20913;-77
2023/01/25 01:03:19;;;;;;;50.30;23.10;;;2.20;99.90;;;;;;5050873;28;20197;-77
2023/01/25 01:05:45;;;;;;;50.40;21.87;;;2.20;99.90;;;;;;5052086;28;20640;-76
2023/01/25 01:08:12;;;;;;;46.47;22.60;;;2.20;99.90;;;;;;5050578;28;20195;-76
2023/01/25 01:10:38;;;;;;;46.88;21.70;;;2.20;99.90;;;;;;5051939;28;20181;-77
2023/01/25 01:13:04;;;;;;;41.47;20.47;;;2.20;99.90;;;;;;5033443;28;20274;-76
2023/01/25 01:15:30;;;;;;;56.83;24.10;;;2.20;99.90;;;;;;5051339;28;20419;-76
2023/01/25 01:17:55;;;;;;;48.90;22.77;;;2.20;99.90;;;;;;5051414;28;20191;-76
2023/01/25 01:20:21;;;;;;;49.07;21.97;;;2.20;99.90;;;;;;5033433;28;20637;-75
2023/01/25 01:22:47;;;;;;;47.70;23.23;;;2.20;99.90;;;;;;5049903;28;20295;-76
2023/01/25 01:25:12;;;;;;;42.07;21.47;;;2.20;99.90;;;;;;5050836;28;20415;-76
2023/01/25 01:27:38;;;;;;;47.67;22.17;;;2.20;99.90;;;;;;5050664;28;20217;-76
2023/01/25 01:30:05;;;;;;;55.10;23.57;;;2.20;99.90;;;;;;5049334;28;20765;-76
2023/01/25 01:32:30;;;;;;;46.85;23.85;;;2.20;99.90;;;;;;5050334;28;20210;-76
2023/01/25 01:34:56;;;;;;;47.70;22.60;;;2.20;99.90;;;;;;5049663;28;20225;-78
2023/01/25 01:37:21;;;;;;;44.53;23.07;;;2.10;99.90;;;;;;5049800;28;20177;-76
2023/01/25 01:39:47;;;;;;;42.10;21.07;;;2.10;99.90;;;;;;5050172;28;20180;-76
2023/01/25 01:42:13;;;;;;;44.03;22.40;;;2.20;99.90;;;;;;5050066;28;20635;-76
2023/01/25 01:44:47;;;;;;;42.03;21.63;;;2.20;99.90;;;;;;5050330;28;20194;-76
2023/01/25 01:47:21;;;;;;;57.65;27.40;;;2.20;99.90;;;;;;5050166;28;20180;-76
2023/01/25 01:49:54;;;;;;;51.28;24.45;;;2.20;99.90;;;;;;5049806;28;20229;-76
2023/01/25 01:52:26;;;;;;;46.70;22.58;;;2.20;99.90;;;;;;5048584;28;20215;-76
2023/01/25 01:55:00;;;;;;;49.35;22.80;;;2.20;99.90;;;;;;5048490;28;20218;-76
2023/01/25 01:57:43;;;;;;;44.72;21.00;;;2.20;99.90;;;;;;5050024;28;20200;-76
2023/01/25 02:00:13;;;;;;;39.92;19.38;;;2.20;99.90;;;;;;5049569;28;20188;-76
2023/01/25 02:02:41;;;;;;;43.00;21.30;;;2.20;99.90;;;;;;5049478;28;20321;-76
2023/01/25 02:05:11;;;;;;;40.30;18.98;;;2.20;99.90;;;;;;5049643;28;20176;-76
2023/01/25 02:07:38;;;;;;;45.60;22.10;;;2.20;99.90;;;;;;5048459;28;20824;-78
2023/01/25 02:10:06;;;;;;;48.80;22.63;;;2.20;99.90;;;;;;5048796;28;20603;-78
2023/01/25 02:12:32;;;;;;;43.42;21.05;;;2.20;99.90;;;;;;5050609;28;20211;-78
2023/01/25 02:14:57;;;;;;;40.60;20.07;;;2.20;99.90;;;;;;5050495;28;20181;-78
2023/01/25 02:17:38;;;;;;;42.73;21.20;;;2.20;99.90;;;;;;5050614;28;20933;-77
2023/01/25 02:20:22;;;;;;;40.90;20.27;;;2.20;99.90;;;;;;5050923;28;20339;-77
2023/01/25 02:23:13;;;;;;;53.83;20.52;;;2.20;99.90;;;;;;5048396;28;20858;-76
2023/01/25 02:25:40;;;;;;;39.58;20.45;;;2.20;99.90;;;;;;5010683;28;20261;-78
2023/01/25 02:28:11;;;;;;;49.60;23.13;;;2.20;99.90;;;;;;5047888;28;20197;-76
2023/01/25 02:30:37;;;;;;;44.25;20.50;;;2.20;99.90;;;;;;5048317;28;20177;-77
2023/01/25 02:33:03;;;;;;;39.33;19.17;;;2.20;99.90;;;;;;5049918;28;20212;-77
2023/01/25 02:36:18;;;;;;;39.80;20.10;;;2.20;99.90;;;;;;5049475;28;20433;-76
2023/01/25 02:39:12;;;;;;;41.35;20.95;;;2.20;99.90;;;;;;5044143;28;20185;-76
2023/01/25 02:41:40;;;;;;;39.58;19.00;;;2.20;99.90;;;;;;5048951;28;20201;-76
2023/01/25 02:44:12;;;;;;;40.35;20.90;;;2.20;99.90;;;;;;5047510;28;20604;-76
2023/01/25 02:46:40;;;;;;;39.80;19.20;;;2.20;99.90;;;;;;5049112;28;20185;-76
2023/01/25 02:49:07;;;;;;;43.72;20.33;;;2.20;99.90;;;;;;5048943;28;20196;-76
2023/01/25 02:51:37;;;;;;;37.28;18.63;;;2.20;99.90;;;;;;5048818;28;20210;-76
2023/01/25 02:54:05;;;;;;;32.35;17.80;;;2.20;99.90;;;;;;5048585;28;20300;-76
2023/01/25 02:56:31;;;;;;;36.40;17.80;;;2.20;99.90;;;;;;5048797;28;20194;-76
2023/01/25 02:58:56;;;;;;;20.73;12.02;;;2.20;99.90;;;;;;5047627;28;20552;-76
2023/01/25 03:01:22;;;;;;;20.77;11.07;;;2.20;99.90;;;;;;5048730;28;20224;-76
2023/01/25 03:03:48;;;;;;;14.95;10.38;;;2.30;99.90;;;;;;5048807;28;20185;-76
2023/01/25 03:06:22;;;;;;;14.00;9.30;;;2.20;99.90;;;;;;5048717;28;20193;-76
2023/01/25 03:08:48;;;;;;;18.23;10.30;;;2.20;99.90;;;;;;5047277;28;20237;-75
2023/01/25 03:11:14;;;;;;;18.73;10.60;;;2.20;99.90;;;;;;5030499;28;20222;-76
2023/01/25 03:13:40;;;;;;;14.80;9.33;;;2.20;99.90;;;;;;5031202;28;20220;-77
2023/01/25 03:16:08;;;;;;;15.20;9.77;;;2.30;99.90;;;;;;5031074;28;20299;-76
2023/01/25 03:18:34;;;;;;;29.63;15.68;;;2.30;99.90;;;;;;5047158;28;20536;-76
2023/01/25 03:21:12;;;;;;;25.90;14.93;;;2.30;99.90;;;;;;5048602;28;20206;-76
2023/01/25 03:23:38;;;;;;;25.85;14.82;;;2.50;99.90;;;;;;5047242;28;20200;-76
2023/01/25 03:26:10;;;;;;;27.40;16.10;;;2.30;99.90;;;;;;5048645;28;20208;-77
2023/01/25 03:28:37;;;;;;;23.83;13.82;;;2.20;99.90;;;;;;5047164;28;20669;-76
2023/01/25 03:31:04;;;;;;;17.02;10.48;;;2.30;99.90;;;;;;5030457;28;20282;-77
2023/01/25 03:33:29;;;;;;;14.80;9.75;;;2.30;99.90;;;;;;5047480;28;20207;-76
2023/01/25 03:35:55;;;;;;;14.80;9.00;;;2.30;99.90;;;;;;5048785;28;20188;-78
2023/01/25 03:38:22;;;;;;;16.42;9.63;;;2.30;99.90;;;;;;5054055;28;20215;-76
2023/01/25 03:40:47;;;;;;;15.18;9.40;;;2.30;99.90;;;;;;5050878;28;20183;-78
2023/01/25 03:43:14;;;;;;;12.40;7.87;;;2.20;99.90;;;;;;5054980;28;20505;-77
2023/01/25 03:45:39;;;;;;;13.88;8.75;;;2.30;99.90;;;;;;5054041;28;20645;-78
2023/01/25 03:48:05;;;;;;;14.33;9.03;;;2.20;99.90;;;;;;5056344;28;20725;-78
2023/01/25 03:50:31;;;;;;;14.88;9.27;;;2.30;99.90;;;;;;5056144;28;20184;-78
2023/01/25 03:53:12;;;;;;;20.10;11.20;;;2.30;99.90;;;;;;5055432;28;20229;-78
2023/01/25 03:55:37;;;;;;;14.55;8.82;;;2.40;99.90;;;;;;5055706;28;20313;-79
2023/01/25 03:58:03;;;;;;;16.30;10.20;;;2.30;99.90;;;;;;5054481;28;20281;-78
2023/01/25 04:00:29;;;;;;;17.23;10.70;;;2.30;99.90;;;;;;5054816;28;20191;-78
2023/01/25 04:02:54;;;;;;;15.83;10.33;;;2.30;99.90;;;;;;5053111;28;20216;-78
2023/01/25 04:05:20;;;;;;;15.90;9.37;;;2.30;99.90;;;;;;5054615;28;20188;-77
2023/01/25 04:07:45;;;;;;;13.67;9.17;;;2.30;99.90;;;;;;5053350;28;20606;-78
2023/01/25 04:10:11;;;;;;;13.13;8.43;;;2.20;99.90;;;;;;5053424;28;20191;-77
2023/01/25 04:12:37;;;;;;;17.33;10.33;;;2.20;99.90;;;;;;5051623;28;20234;-77
2023/01/25 04:15:03;;;;;;;16.03;9.73;;;2.20;99.90;;;;;;5035152;28;20280;-77
2023/01/25 04:17:28;;;;;;;16.50;9.67;;;2.20;99.90;;;;;;5051366;28;20427;-77
2023/01/25 04:19:54;;;;;;;13.50;9.13;;;2.20;99.90;;;;;;5052906;28;20191;-76
2023/01/25 04:22:20;;;;;;;12.37;8.70;;;2.20;99.90;;;;;;5051429;28;20234;-77
2023/01/25 04:24:45;;;;;;;14.32;9.00;;;2.10;99.90;;;;;;5052635;28;20180;-77
2023/01/25 04:27:11;;;;;;;16.47;9.63;;;2.20;99.90;;;;;;5051100;28;20190;-77
2023/01/25 04:29:37;;;;;;;14.93;10.30;;;2.10;99.90;;;;;;5051026;28;20673;-77
2023/01/25 04:32:02;;;;;;;15.50;9.53;;;2.10;99.90;;;;;;5033830;28;21016;-77
2023/01/25 04:34:28;;;;;;;17.10;10.90;;;2.10;99.90;;;;;;5050978;28;20604;-77
2023/01/25 04:36:53;;;;;;;18.53;9.40;;;2.10;99.90;;;;;;5034050;28;20187;-77
2023/01/25 04:39:19;;;;;;;18.00;11.20;;;2.10;99.90;;;;;;5053282;28;20267;-77
2023/01/25 04:41:44;;;;;;;21.00;10.30;;;2.10;99.90;;;;;;5052370;28;20208;-77
2023/01/25 04:44:10;;;;;;;17.27;10.20;;;2.10;99.90;;;;;;5052826;28;20261;-78
2023/01/25 04:46:36;;;;;;;18.43;10.30;;;2.10;99.90;;;;;;5055009;28;20304;-79
2023/01/25 04:49:01;;;;;;;15.67;9.87;;;2.10;99.90;;;;;;5056092;28;20216;-78
2023/01/25 04:51:27;;;;;;;16.60;9.23;;;2.10;99.90;;;;;;5055942;28;20222;-79
2023/01/25 04:53:52;;;;;;;16.63;9.60;;;2.10;99.90;;;;;;5057754;28;20219;-78
2023/01/25 04:56:18;;;;;;;18.47;11.27;;;2.10;99.90;;;;;;5057256;28;20185;-77
2023/01/25 04:58:44;;;;;;;15.50;10.60;;;2.10;99.90;;;;;;5059586;28;20275;-78
2023/01/25 05:01:10;;;;;;;16.60;10.47;;;2.10;99.90;;;;;;5036855;28;20239;-77
2023/01/25 05:03:35;;;;;;;20.90;11.27;;;2.20;99.90;;;;;;5053146;28;20253;-77
2023/01/25 05:06:01;;;;;;;21.67;11.23;;;2.20;99.90;;;;;;5034708;28;20424;-78
2023/01/25 05:08:26;;;;;;;13.90;9.87;;;2.20;99.90;;;;;;5034216;28;20631;-78
2023/01/25 05:10:52;;;;;;;16.53;10.10;;;2.20;99.90;;;;;;5052053;28;20234;-77
2023/01/25 05:13:18;;;;;;;17.50;10.17;;;2.20;99.90;;;;;;5051261;28;20207;-76
2023/01/25 05:15:43;;;;;;;18.90;10.50;;;2.20;99.90;;;;;;5051792;28;20235;-78
2023/01/25 05:18:09;;;;;;;17.37;10.70;;;2.20;99.90;;;;;;5052005;28;20720;-78
2023/01/25 05:20:34;;;;;;;17.30;11.00;;;2.30;99.90;;;;;;5051999;28;20193;-77
2023/01/25 05:23:00;;;;;;;17.37;10.50;;;2.20;99.90;;;;;;5050837;28;20188;-76
2023/01/25 05:28:10;;;;;;;16.75;9.55;;;2.20;99.90;;;;;;5050978;28;20846;-76
2023/01/25 05:30:35;;;;;;;15.40;9.10;;;2.20;99.90;;;;;;5053236;28;20212;-79
2023/01/25 05:33:01;;;;;;;14.90;10.33;;;2.20;99.90;;;;;;5049801;28;20243;-77
2023/01/25 05:35:26;;;;;;;14.27;9.17;;;2.20;99.90;;;;;;5052024;28;20192;-78
2023/01/25 05:37:59;;;;;;;18.27;10.83;;;2.20;99.90;;;;;;5050388;28;20193;-76
2023/01/25 05:40:25;;;;;;;19.42;10.48;;;2.20;99.90;;;;;;5048997;28;20185;-76
2023/01/25 05:42:58;;;;;;;17.70;10.45;;;2.20;99.90;;;;;;5048756;28;20274;-76
2023/01/25 05:45:24;;;;;;;21.65;11.80;;;2.20;99.90;;;;;;5050139;28;20645;-75
2023/01/25 05:47:57;;;;;;;18.38;11.18;;;2.20;99.90;;;;;;5048713;28;20679;-76
2023/01/25 05:50:23;;;;;;;16.33;9.80;;;2.20;99.90;;;;;;5049044;28;20247;-75
2023/01/25 05:52:49;;;;;;;14.15;8.93;;;2.20;99.90;;;;;;5048757;28;20274;-76
2023/01/25 05:55:15;;;;;;;14.83;8.90;;;2.10;99.90;;;;;;5050639;28;20653;-76
2023/01/25 05:57:40;;;;;;;15.77;9.37;;;2.10;99.90;;;;;;5049011;28;20437;-74
2023/01/25 06:00:07;;;;;;;15.87;10.10;;;2.10;99.90;;;;;;5049701;28;20196;-76
2023/01/25 06:02:33;;;;;;;15.90;9.68;;;2.10;99.90;;;;;;5032342;28;20587;-74
2023/01/25 06:04:59;;;;;;;19.03;10.30;;;2.10;99.90;;;;;;5050008;28;20192;-75
2023/01/25 06:07:25;;;;;;;19.30;11.37;;;2.10;99.90;;;;;;5048036;28;20439;-75
2023/01/25 06:09:50;;;;;;;19.67;9.43;;;2.10;99.90;;;;;;5049242;28;20192;-75
2023/01/25 06:12:20;;;;;;;17.53;10.03;;;2.10;99.90;;;;;;5047589;28;20215;-75
2023/01/25 06:14:46;;;;;;;16.58;9.35;;;2.20;99.90;;;;;;5047495;28;20273;-76
2023/01/25 06:17:12;;;;;;;19.80;10.63;;;2.20;99.90;;;;;;5048952;28;20958;-74
2023/01/25 06:19:38;;;;;;;17.23;11.27;;;2.20;99.90;;;;;;5048716;28;20192;-75
2023/01/25 06:22:04;;;;;;;20.33;12.35;;;2.20;99.90;;;;;;5047317;28;20285;-75
2023/01/25 06:24:29;;;;;;;17.97;10.13;;;2.20;99.90;;;;;;5047253;28;20221;-76
2023/01/25 06:26:55;;;;;;;18.60;10.70;;;2.20;99.90;;;;;;5048618;28;20229;-75
2023/01/25 06:29:20;;;;;;;15.77;10.27;;;2.20;99.90;;;;;;5047149;28;20207;-76
2023/01/25 06:31:46;;;;;;;15.80;9.23;;;2.20;99.90;;;;;;5048446;28;20208;-75
2023/01/25 06:34:12;;;;;;;12.93;8.80;;;2.20;99.90;;;;;;5048382;28;20759;-75
2023/01/25 06:36:40;;;;;;;13.40;7.77;;;2.20;99.90;;;;;;5048475;28;20181;-75
2023/01/25 06:39:06;;;;;;;13.18;8.38;;;2.10;99.90;;;;;;5048334;28;20195;-76
2023/01/25 06:41:31;;;;;;;17.37;10.23;;;2.00;99.90;;;;;;5046508;28;20204;-76
2023/01/25 06:43:57;;;;;;;14.23;8.30;;;2.00;99.90;;;;;;5046081;28;20185;-75
2023/01/25 06:46:23;;;;;;;13.50;8.50;;;2.00;99.90;;;;;;5047582;28;20195;-76
2023/01/25 06:48:48;;;;;;;12.47;7.87;;;2.00;99.90;;;;;;5047539;28;20205;-76
2023/01/25 06:51:15;;;;;;;13.60;9.20;;;2.00;99.90;;;;;;5047330;28;20257;-75
2023/01/25 06:53:43;;;;;;;15.75;9.52;;;2.00;99.90;;;;;;5047425;28;20297;-75
2023/01/25 06:56:13;;;;;;;15.75;8.98;;;2.00;99.90;;;;;;5045975;28;20183;-75
2023/01/25 06:58:40;;;;;;;14.70;8.95;;;2.00;99.90;;;;;;5047692;28;20180;-75
2023/01/25 07:01:09;;;;;;;15.13;10.30;;;2.00;99.90;;;;;;5047436;28;20216;-76
2023/01/25 07:03:35;;;;;;;18.48;9.82;;;2.00;99.90;;;;;;5045768;28;20564;-76
2023/01/25 07:06:05;;;;;;;17.00;9.47;;;2.00;99.90;;;;;;5047826;28;20184;-74
2023/01/25 07:08:32;;;;;;;21.30;10.93;;;2.00;99.90;;;;;;5047669;28;20610;-76
2023/01/25 07:11:00;;;;;;;18.45;10.10;;;2.00;99.90;;;;;;5047517;28;20211;-77
2023/01/25 07:13:27;;;;;;;16.13;9.90;;;2.10;99.90;;;;;;5047493;28;20248;-76
2023/01/25 07:16:01;;;;;;;16.60;10.50;;;2.10;99.90;;;;;;5047612;28;20733;-76
2023/01/25 07:18:29;;;;;;;19.10;10.48;;;2.10;99.90;;;;;;5046266;28;20184;-77
2023/01/25 07:21:01;;;;;;;15.80;10.35;;;2.10;99.90;;;;;;5045246;28;20194;-76
2023/01/25 07:23:27;;;;;;;17.02;10.93;;;2.10;99.90;;;;;;5047436;28;20176;-76
2023/01/25 07:25:52;;;;;;;16.83;9.60;;;2.10;99.90;;;;;;5045912;28;20206;-76
2023/01/25 07:28:18;;;;;;;17.70;10.07;;;2.10;99.90;;;;;;5047262;28;20242;-77
2023/01/25 07:30:48;;;;;;;17.43;9.90;;;2.10;99.90;;;;;;5046594;28;20184;-76
2023/01/25 07:33:19;;;;;;;20.15;10.95;;;2.10;99.90;;;;;;5045949;28;20238;-77
2023/01/25 07:35:44;;;;;;;17.60;10.15;;;2.10;99.90;;;;;;5046344;28;20204;-76
2023/01/25 07:38:10;;;;;;;16.77;8.23;;;2.10;99.90;;;;;;5046313;28;20185;-76
2023/01/25 07:40:35;;;;;;;15.30;7.97;;;2.10;99.90;;;;;;5029790;28;20185;-76
2023/01/25 07:43:01;;;;;;;15.27;7.90;;;1.90;99.90;;;;;;5029986;28;20889;-76
2023/01/25 07:45:30;;;;;;;11.93;8.03;;;1.80;99.90;;;;;;5046225;28;20191;-76
2023/01/25 07:47:59;;;;;;;12.70;7.78;;;1.80;99.90;;;;;;5047637;28;20711;-76
2023/01/25 07:50:28;;;;;;;14.68;7.55;;;1.80;99.90;;;;;;5047882;28;20204;-76
2023/01/25 07:52:53;;;;;;;12.60;6.95;;;1.90;99.90;;;;;;5046332;28;20209;-75
2023/01/25 07:55:19;;;;;;;12.00;7.47;;;1.90;99.90;;;;;;5046204;28;20287;-75
2023/01/25 07:57:45;;;;;;;13.05;7.15;;;1.90;99.90;;;;;;5048069;28;20176;-75
2023/01/25 08:00:11;;;;;;;14.13;8.10;;;1.80;99.90;;;;;;5046272;28;20278;-76
2023/01/25 08:02:37;;;;;;;11.23;7.07;;;1.90;99.90;;;;;;5047863;28;20204;-75
2023/01/25 08:05:05;;;;;;;14.40;7.90;;;1.90;99.90;;;;;;5047489;28;20299;-76
2023/01/25 08:07:30;;;;;;;15.10;8.23;;;1.90;99.90;;;;;;5029642;28;20242;-76
2023/01/25 08:09:56;;;;;;;11.20;7.20;;;1.90;99.90;;;;;;5047621;28;20193;-75
2023/01/25 08:12:22;;;;;;;13.50;7.90;;;2.00;99.90;;;;;;5047568;28;20552;-75
2023/01/25 08:14:49;;;;;;;14.13;8.43;;;2.00;99.90;;;;;;5046165;28;20208;-75
2023/01/25 08:17:15;;;;;;;13.85;7.40;;;1.90;99.90;;;;;;5047516;28;20176;-77
2023/01/25 08:19:40;;;;;;;14.80;8.43;;;2.00;99.90;;;;;;5047327;28;20560;-76
2023/01/25 08:22:07;;;;;;;12.63;7.00;;;1.90;99.90;;;;;;5046795;28;20193;-75
2023/01/25 08:24:33;;;;;;;14.98;7.80;;;1.80;99.90;;;;;;5045701;28;20184;-76
2023/01/25 08:26:58;;;;;;;13.47;7.37;;;1.90;99.90;;;;;;5046831;28;20195;-75
2023/01/25 08:29:26;;;;;;;14.87;8.07;;;1.90;99.90;;;;;;5047510;28;20180;-76
2023/01/25 08:31:55;;;;;;;15.52;9.13;;;1.90;99.90;;;;;;5047775;28;20203;-75
2023/01/25 08:34:20;;;;;;;14.02;8.15;;;1.90;99.90;;;;;;5050569;28;20235;-76
2023/01/25 08:36:46;;;;;;;16.83;8.50;;;2.00;99.90;;;;;;5049081;28;20665;-75
2023/01/25 08:39:12;;;;;;;13.83;7.80;;;2.00;99.90;;;;;;5049413;28;21006;-75
2023/01/25 08:41:37;;;;;;;11.87;7.90;;;2.00;99.90;;;;;;5050962;28;20224;-77
2023/01/25 08:44:04;;;;;;;16.20;8.70;;;2.10;99.90;;;;;;5050750;28;20922;-74
2023/01/25 08:46:32;;;;;;;14.43;8.60;;;2.20;99.90;;;;;;5050409;28;20192;-76
2023/01/25 08:48:59;;;;;;;16.35;9.30;;;2.20;99.90;;;;;;5049110;28;20192;-76
2023/01/25 08:51:25;;;;;;;13.43;8.32;;;2.20;99.90;;;;;;5050189;28;20999;-75
2023/01/25 08:53:51;;;;;;;11.70;8.10;;;2.20;99.90;;;;;;5050251;28;20685;-76
2023/01/25 08:56:17;;;;;;;14.37;8.43;;;2.20;99.90;;;;;;5048923;28;20259;-74
2023/01/25 08:58:45;;;;;;;18.15;8.63;;;2.20;99.90;;;;;;5050593;28;20426;-76
2023/01/25 09:01:13;;;;;;;14.15;9.00;;;2.30;99.90;;;;;;5050259;28;20219;-75
2023/01/25 09:03:42;;;;;;;16.75;9.98;;;2.30;99.90;;;;;;5048889;28;20195;-74
2023/01/25 09:06:09;;;;;;;15.63;8.80;;;2.30;99.90;;;;;;5049009;28;20188;-76
2023/01/25 09:08:35;;;;;;;14.95;7.97;;;2.20;99.90;;;;;;5050850;28;20188;-76
2023/01/25 09:11:02;;;;;;;13.13;8.48;;;2.20;99.90;;;;;;5050414;28;20205;-76
2023/01/25 09:13:28;;;;;;;15.18;9.25;;;2.20;99.90;;;;;;5049264;28;20285;-76
2023/01/25 09:16:11;;;;;;;15.87;8.13;;;2.20;99.90;;;;;;5050468;28;20180;-75
2023/01/25 09:18:38;;;;;;;16.92;9.75;;;2.20;99.90;;;;;;5050645;28;20182;-76
2023/01/25 09:21:13;;;;;;;18.35;9.90;;;2.30;99.90;;;;;;5050849;28;20549;-76
2023/01/25 09:23:39;;;;;;;12.80;8.43;;;2.30;99.90;;;;;;5049486;28;20189;-76
2023/01/25 09:26:05;;;;;;;14.00;8.70;;;2.30;99.90;;;;;;5049151;28;20193;-75
2023/01/25 09:28:32;;;;;;;12.93;8.20;;;2.30;99.90;;;;;;5050376;28;20192;-74
2023/01/25 09:31:04;;;;;;;14.30;9.23;;;2.30;99.90;;;;;;5049047;28;20291;-75
2023/01/25 09:33:32;;;;;;;13.60;7.30;;;2.30;99.90;;;;;;5049151;28;20203;-75
2023/01/25 09:35:58;;;;;;;17.60;10.00;;;2.30;99.90;;;;;;5048934;28;20275;-76
2023/01/25 09:38:24;;;;;;;15.90;9.60;;;2.40;99.90;;;;;;5048577;28;20263;-76
2023/01/25 09:41:15;;;;;;;15.43;9.40;;;2.40;99.90;;;;;;5049910;28;20423;-75
2023/01/25 09:43:43;;;;;;;18.35;9.82;;;2.50;99.90;;;;;;5048590;28;20679;-76
2023/01/25 09:46:23;;;;;;;14.40;8.70;;;2.50;99.90;;;;;;5051347;28;20185;-77
2023/01/25 09:49:11;;;;;;;17.48;9.30;;;2.40;99.90;;;;;;5050027;28;20168;-76
2023/01/25 09:52:01;;;;;;;15.57;9.43;;;2.40;99.90;;;;;;5049677;28;20216;-77
2023/01/25 09:54:29;;;;;;;16.02;8.93;;;2.50;99.90;;;;;;5049874;28;20205;-77
2023/01/25 09:56:56;;;;;;;17.92;9.75;;;2.50;99.90;;;;;;5049576;28;20192;-76
2023/01/25 09:59:29;;;;;;;17.73;9.90;;;2.40;99.90;;;;;;5048061;28;20192;-77
2023/01/25 10:02:11;;;;;;;13.40;8.88;;;2.40;99.90;;;;;;5049334;28;20207;-76
2023/01/25 10:04:41;;;;;;;17.52;10.50;;;2.40;99.90;;;;;;5049271;28;20180;-75
2023/01/25 10:07:38;;;;;;;15.77;9.75;;;2.40;99.90;;;;;;5031830;28;20197;-77
2023/01/25 10:10:10;;;;;;;16.60;9.10;;;2.50;99.90;;;;;;5047695;28;20252;-77
2023/01/25 10:12:37;;;;;;;13.57;7.70;;;2.50;99.90;;;;;;5049224;28;20209;-76
2023/01/25 10:15:27;;;;;;;18.33;8.98;;;2.60;99.90;;;;;;5049172;28;20240;-76
2023/01/25 10:18:22;;;;;;;15.88;9.57;;;2.50;99.90;;;;;;5047811;28;20197;-76
2023/01/25 10:21:25;;;;;;;15.02;9.07;;;2.50;99.90;;;;;;5044098;28;20198;-77
2023/01/25 10:24:25;;;;;;;17.40;10.05;;;2.50;99.90;;;;;;5026262;28;20195;-77
2023/01/25 10:27:08;;;;;;;14.05;8.73;;;2.50;99.90;;;;;;5048918;28;20181;-75
2023/01/25 10:29:36;;;;;;;18.05;9.95;;;2.50;99.90;;;;;;5048339;28;20224;-76
2023/01/25 10:32:11;;;;;;;17.17;10.23;;;2.50;99.90;;;;;;5046803;28;20213;-75
2023/01/25 10:34:44;;;;;;;19.65;9.82;;;2.50;99.90;;;;;;5048021;28;20210;-76
2023/01/25 10:37:19;;;;;;;21.30;10.48;;;2.50;99.90;;;;;;5048144;28;20181;-76
2023/01/25 10:40:01;;;;;;;20.80;10.10;;;2.50;99.90;;;;;;5048209;28;20942;-76
2023/01/25 10:42:32;;;;;;;23.58;10.50;;;2.50;99.90;;;;;;5049303;28;20253;-75
2023/01/25 10:44:57;;;;;;;18.67;10.38;;;2.50;99.90;;;;;;5046628;28;20203;-77
2023/01/25 10:47:28;;;;;;;19.70;10.87;;;2.60;99.90;;;;;;5029877;28;20291;-76
2023/01/25 10:49:55;;;;;;;25.65;10.82;;;2.50;99.90;;;;;;5048243;28;20267;-75
2023/01/25 10:52:28;;;;;;;22.40;11.25;;;2.50;99.90;;;;;;5048449;28;20266;-76
2023/01/25 10:55:22;;;;;;;18.95;10.95;;;2.50;99.90;;;;;;5047607;28;20262;-76
2023/01/25 10:57:56;;;;;;;19.08;10.32;;;2.50;99.90;;;;;;5047632;28;20181;-76
2023/01/25 11:00:40;;;;;;;17.42;10.07;;;2.60;99.90;;;;;;5046324;28;20195;-76
2023/01/25 11:03:18;;;;;;;19.70;11.07;;;2.50;99.90;;;;;;5049173;28;20181;-76
2023/01/25 11:05:55;;;;;;;23.45;10.32;;;2.50;99.90;;;;;;5047310;28;20663;-75
2023/01/25 11:08:45;;;;;;;18.83;9.88;;;2.50;99.90;;;;;;5047716;28;20241;-76
2023/01/25 11:11:35;;;;;;;16.13;9.77;;;2.50;99.90;;;;;;5047052;28;20235;-76
2023/01/25 11:14:01;;;;;;;19.10;9.93;;;2.60;99.90;;;;;;5039665;28;20211;-76
2023/01/25 11:16:33;;;;;;;19.75;11.13;;;2.60;99.90;;;;;;5046250;28;20186;-76
2023/01/25 11:19:01;;;;;;;17.17;10.60;;;2.60;99.90;;;;;;5046542;28;20280;-76
2023/01/25 11:21:29;;;;;;;24.55;10.75;;;2.50;99.90;;;;;;5047691;28;20206;-76
2023/01/25 11:24:05;;;;;;;18.63;10.48;;;2.50;99.90;;;;;;5048000;28;20184;-75
2023/01/25 11:26:35;;;;;;;17.63;9.90;;;2.50;99.90;;;;;;5047985;28;20176;-77
2023/01/25 11:29:15;;;;;;;19.75;10.00;;;2.40;99.90;;;;;;5047141;28;20677;-78
2023/01/25 11:31:47;;;;;;;19.95;10.40;;;2.40;99.90;;;;;;5047139;28;20212;-77
2023/01/25 11:34:19;;;;;;;19.42;10.10;;;2.50;99.90;;;;;;5048323;28;20966;-78
2023/01/25 11:37:15;;;;;;;18.73;10.48;;;2.50;99.90;;;;;;5047781;28;20817;-79
2023/01/25 11:39:46;;;;;;;18.40;10.43;;;2.50;99.90;;;;;;5050409;28;20192;-80
2023/01/25 11:42:31;;;;;;;18.40;10.18;;;2.60;99.90;;;;;;5051020;28;20200;-81
2023/01/25 11:45:24;;;;;;;19.13;10.82;;;2.40;99.90;;;;;;5052290;28;20192;-77
2023/01/25 11:48:01;;;;;;;21.75;11.38;;;2.50;99.90;;;;;;5047258;28;20679;-76
2023/01/25 11:50:37;;;;;;;22.50;12.65;;;2.50;99.90;;;;;;5049003;28;20334;-76
2023/01/25 11:53:18;;;;;;;18.27;10.45;;;2.40;99.90;;;;;;5047166;28;20180;-76
2023/01/25 11:55:59;;;;;;;18.40;10.68;;;2.40;99.90;;;;;;5048438;28;20218;-76
2023/01/25 11:59:00;;;;;;;21.58;10.75;;;2.40;99.90;;;;;;5046631;28;20222;-76
2023/01/25 12:01:54;;;;;;;22.40;10.60;;;2.40;99.90;;;;;;5047595;28;20702;-78
2023/01/25 12:04:42;;;;;;;16.52;9.60;;;2.40;99.90;;;;;;5048523;28;20184;-77
2023/01/25 12:07:24;;;;;;;19.45;10.25;;;2.50;99.90;;;;;;5050966;28;20230;-77
2023/01/25 12:10:13;;;;;;;17.83;9.82;;;2.50;99.90;;;;;;5051577;28;20183;-77
2023/01/25 12:12:47;;;;;;;18.17;10.38;;;2.50;99.90;;;;;;5045826;28;20218;-76
2023/01/25 12:15:28;;;;;;;18.00;10.45;;;2.50;99.90;;;;;;5050889;28;20290;-75
2023/01/25 12:18:22;;;;;;;18.88;10.43;;;2.50;99.90;;;;;;5049314;28;20295;-76
2023/01/25 12:21:06;;;;;;;20.10;9.27;;;2.50;99.90;;;;;;5050440;28;20184;-75
2023/01/25 12:24:02;;;;;;;16.55;10.00;;;2.50;99.90;;;;;;5050439;28;20204;-75
2023/01/25 12:26:32;;;;;;;18.77;9.90;;;2.40;99.90;;;;;;5050453;28;20221;-75
2023/01/25 12:29:08;;;;;;;17.02;9.73;;;2.50;99.90;;;;;;5050328;28;20185;-75
2023/01/25 12:31:42;;;;;;;18.65;9.82;;;2.60;99.90;;;;;;5050138;28;20771;-75
2023/01/25 12:34:16;;;;;;;15.35;8.38;;;2.50;99.90;;;;;;5050376;28;20207;-76
2023/01/25 12:36:47;;;;;;;18.65;9.98;;;2.60;99.90;;;;;;5050316;28;20178;-75
2023/01/25 12:39:14;;;;;;;18.25;9.38;;;2.60;99.90;;;;;;5050296;28;20231;-75
2023/01/25 12:41:53;;;;;;;16.17;8.85;;;2.50;99.90;;;;;;5050138;28;20579;-75
2023/01/25 12:44:26;;;;;;;14.43;8.93;;;2.60;99.90;;;;;;5048486;28;20201;-74
2023/01/25 12:47:06;;;;;;;20.05;11.48;;;2.60;99.90;;;;;;5050339;28;20180;-74
2023/01/25 12:50:01;;;;;;;18.10;9.48;;;2.60;99.90;;;;;;5050458;28;20188;-76
2023/01/25 12:52:29;;;;;;;20.13;9.85;;;2.60;99.90;;;;;;5032443;28;20588;-74
2023/01/25 12:54:59;;;;;;;23.17;11.73;;;2.60;99.90;;;;;;5050210;28;20213;-74
2023/01/25 12:57:51;;;;;;;15.65;8.38;;;2.70;99.90;;;;;;5048896;28;20173;-76
2023/01/25 13:00:44;;;;;;;19.00;10.55;;;2.70;99.90;;;;;;5050183;28;20275;-76